Time,TemperatureF,DewpointF,PressureIn,WindDirection,WindDirectionDegrees,WindSpeedMPH,WindSpeedGustMPH,Humidity,HourlyPrecipIn,Conditions,Clouds,dailyrainin,SoftwareType,DateUTC
2013-02-23 00:00:00,74.3,62.2,30.41,ESE,112,6.9,6.9,66,0.00,CLR,SCT,0.00,WeatherDisplay:10.37,2013-02-23 05:00:00,
2013-02-23 00:05:00,74.3,62.2,30.41,SE,135,5.8,5.8,66,0.00,CLR,SCT,0.00,WeatherDisplay:10.37,2013-02-23 05:05:00,
2013-02-23 00:10:00,74.3,61.8,30.41,ESE,112,7.5,7.5,65,0.00,CLR,SCT,0.00,WeatherDisplay:10.37,2013-02-23 05:10:00,
2013-02-23 00:15:00,74.3,61.8,30.41,ESE,112,9.2,9.2,65,0.00,CLR,SCT,0.00,WeatherDisplay:10.37,2013-02-23 05:15:00,
2013-02-23 00:20:00,74.3,61.3,30.41,ESE,112,3.5,4.8,64,0.00,CLR,SCT,0.00,WeatherDisplay:10.37,2013-02-23 05:20:00,
2013-02-23 00:25:00,74.3,61.8,30.41,ESE,112,3.5,4.8,65,0.00,CLR,SCT,0.00,WeatherDisplay:10.37,2013-02-23 05:25:00,
2013-02-23 00:30:00,74.5,61.9,30.41,SE,135,8.1,8.1,65,0.00,CLR,SCT,0.00,WeatherDisplay:10.37,2013-02-23 05:30:00,
2013-02-23 00:35:00,74.5,62.4,30.41,SE,135,4.6,4.7,66,0.00,CLR,SCT,0.00,WeatherDisplay:10.37,2013-02-23 05:35:00,
2013-02-23 00:40:00,74.5,62.4,30.41,ESE,112,4.6,4.6,66,0.00,CLR,SCT,0.00,WeatherDisplay:10.37,2013-02-23 05:40:00,
2013-02-23 00:45:00,74.5,62.8,30.41,East,90,8.1,8.1,67,0.00,CLR,SCT,0.00,WeatherDisplay:10.37,2013-02-23 05:45:00,
2013-02-23 00:50:00,74.3,62.6,30.41,NNW,338,4.6,4.6,67,0.00,CLR,SCT,0.00,WeatherDisplay:10.37,2013-02-23 05:50:00,
2013-02-23 00:55:00,74.5,62.8,30.41,SE,135,5.8,5.8,67,0.00,CLR,SCT,0.00,WeatherDisplay:10.37,2013-02-23 05:55:00,
2013-02-23 01:00:00,74.3,62.6,30.41,ESE,112,9.2,9.2,67,0.00,CLR,SCT,0.00,WeatherDisplay:10.37,2013-02-23 06:00:00,
2013-02-23 01:05:00,74.5,62.8,30.41,ESE,112,6.9,6.9,67,0.00,CLR,SCT,0.00,WeatherDisplay:10.37,2013-02-23 06:05:00,
2013-02-23 01:10:00,74.7,63.4,30.41,SE,135,6.9,6.9,68,0.00,CLR,SCT,0.00,WeatherDisplay:10.37,2013-02-23 06:10:00,
2013-02-23 01:15:00,74.7,63.8,30.41,SE,135,6.9,6.9,69,0.00,CLR,SCT,0.00,WeatherDisplay:10.37,2013-02-23 06:15:00,
2013-02-23 01:21:00,74.8,64.4,30.41,East,90,8.2,8.2,70,0.00,CLR,SCT,0.00,WeatherDisplay:10.37,2013-02-23 06:21:00,
2013-02-23 01:26:00,74.8,64.4,30.41,ESE,112,9.2,9.2,70,0.00,CLR,SCT,0.00,WeatherDisplay:10.37,2013-02-23 06:26:00,
2013-02-23 01:31:00,74.8,64.4,30.41,SW,225,6.9,6.9,70,0.00,CLR,SCT,0.00,WeatherDisplay:10.37,2013-02-23 06:31:00,
2013-02-23 01:36:00,74.8,64.4,30.41,ESE,112,10.4,10.4,70,0.00,CLR,SCT,0.00,WeatherDisplay:10.37,2013-02-23 06:36:00,
2013-02-23 01:41:00,74.8,64.4,30.41,SE,135,4.6,4.9,70,0.00,CLR,SCT,0.00,WeatherDisplay:10.37,2013-02-23 06:41:00,
2013-02-23 01:46:00,74.7,64.2,30.41,SSE,158,9.2,9.2,70,0.00,CLR,SCT,0.00,WeatherDisplay:10.37,2013-02-23 06:46:00,
2013-02-23 01:51:00,74.8,64.4,30.41,SE,135,10.4,10.4,70,0.00,CLR,SCT,0.00,WeatherDisplay:10.37,2013-02-23 06:51:00,
2013-02-23 01:56:00,74.8,64.4,30.41,SE,135,8.1,8.1,70,0.00,CLR,SCT,0.00,WeatherDisplay:10.37,2013-02-23 06:56:00,
2013-02-23 02:01:00,74.8,64.4,30.41,SE,135,6.3,6.3,70,0.00,CLR,SCT,0.00,WeatherDisplay:10.37,2013-02-23 07:01:00,
2013-02-23 02:06:00,74.8,64.4,30.41,East,90,8.1,8.1,70,0.00,CLR,SCT,0.00,WeatherDisplay:10.37,2013-02-23 07:06:00,
2013-02-23 02:11:00,74.7,63.8,30.41,ESE,112,6.9,6.9,69,0.00,CLR,SCT,0.00,WeatherDisplay:10.37,2013-02-23 07:11:00,
2013-02-23 02:16:00,74.7,63.8,30.41,South,180,9.2,9.2,69,0.00,CLR,SCT,0.00,WeatherDisplay:10.37,2013-02-23 07:16:00,
2013-02-23 02:21:00,74.7,63.8,30.41,SSE,158,6.9,6.9,69,0.00,CLR,SCT,0.00,WeatherDisplay:10.37,2013-02-23 07:21:00,
2013-02-23 02:26:00,74.5,63.6,30.41,SE,135,4.6,4.6,69,0.00,CLR,SCT,0.00,WeatherDisplay:10.37,2013-02-23 07:26:00,
2013-02-23 02:31:00,74.5,63.6,30.41,South,180,10.4,10.4,69,0.00,CLR,SCT,0.00,WeatherDisplay:10.37,2013-02-23 07:31:00,
2013-02-23 02:36:00,74.7,63.8,30.41,East,90,4.6,4.6,69,0.00,CLR,SCT,0.00,WeatherDisplay:10.37,2013-02-23 07:36:00,
2013-02-23 02:41:00,74.7,63.8,30.41,ESE,112,9.2,9.2,69,0.00,CLR,SCT,0.00,WeatherDisplay:10.37,2013-02-23 07:41:00,
2013-02-23 02:46:00,74.7,63.8,30.41,SE,135,5.8,5.8,69,0.00,CLR,SCT,0.00,WeatherDisplay:10.37,2013-02-23 07:46:00,
2013-02-23 02:51:00,74.8,63.6,30.41,SSE,158,5.8,5.8,68,0.00,CLR,SCT,0.00,WeatherDisplay:10.37,2013-02-23 07:51:00,
2013-02-23 02:56:00,74.8,63.6,30.41,SSE,158,6.9,6.9,68,0.00,CLR,SCT,0.00,WeatherDisplay:10.37,2013-02-23 07:56:00,
2013-02-23 03:01:00,74.8,63.6,30.41,South,180,8.1,8.1,68,0.00,CLR,SCT,0.00,WeatherDisplay:10.37,2013-02-23 08:01:00,
2013-02-23 03:06:00,74.8,63.1,30.41,South,180,6.9,6.9,67,0.00,CLR,SCT,0.00,WeatherDisplay:10.37,2013-02-23 08:06:00,
2013-02-23 03:11:00,74.8,63.1,30.41,SSE,158,5.8,5.8,67,0.00,CLR,SCT,0.00,WeatherDisplay:10.37,2013-02-23 08:11:00,
2013-02-23 03:16:00,74.7,63.0,30.41,ESE,112,8.1,8.1,67,0.00,CLR,SCT,0.00,WeatherDisplay:10.37,2013-02-23 08:16:00,
2013-02-23 03:21:00,74.7,63.0,30.41,South,180,5.8,5.8,67,0.00,CLR,SCT,0.00,WeatherDisplay:10.37,2013-02-23 08:21:00,
2013-02-23 03:26:00,74.7,63.4,30.41,South,180,5.8,5.8,68,0.00,CLR,SCT,0.00,WeatherDisplay:10.37,2013-02-23 08:26:00,
2013-02-23 03:31:00,74.7,63.0,30.41,SE,135,6.9,6.9,67,0.00,CLR,SCT,0.00,WeatherDisplay:10.37,2013-02-23 08:31:00,
2013-02-23 03:36:00,74.5,63.2,30.41,SE,135,12.7,12.7,68,0.00,CLR,SCT,0.00,WeatherDisplay:10.37,2013-02-23 08:36:00,
2013-02-23 03:41:00,74.5,63.2,30.41,SE,135,6.9,6.9,68,0.00,CLR,SCT,0.00,WeatherDisplay:10.37,2013-02-23 08:41:00,
2013-02-23 03:46:00,74.5,62.8,30.41,South,180,8.1,8.1,67,0.00,CLR,SCT,0.00,WeatherDisplay:10.37,2013-02-23 08:46:00,
2013-02-23 03:51:00,74.5,62.8,30.41,SW,225,6.9,6.9,67,0.00,CLR,SCT,0.00,WeatherDisplay:10.37,2013-02-23 08:51:00,
2013-02-23 03:56:00,74.5,63.2,30.41,SE,135,6.9,6.9,68,0.00,CLR,SCT,0.00,WeatherDisplay:10.37,2013-02-23 08:56:00,
2013-02-23 04:01:00,74.5,63.2,30.41,SSE,158,3.5,4.0,68,0.00,CLR,SCT,0.00,WeatherDisplay:10.37,2013-02-23 09:01:00,
2013-02-23 04:06:00,74.3,63.1,30.41,SSE,158,4.6,4.6,68,0.00,CLR,SCT,0.00,WeatherDisplay:10.37,2013-02-23 09:06:00,
2013-02-23 04:11:00,74.3,63.1,30.41,SSE,158,3.5,3.5,68,0.00,CLR,SCT,0.00,WeatherDisplay:10.37,2013-02-23 09:11:00,
2013-02-23 04:16:00,74.3,63.1,30.41,SE,135,8.1,8.1,68,0.00,CLR,SCT,0.00,WeatherDisplay:10.37,2013-02-23 09:16:00,
2013-02-23 04:22:00,74.3,63.1,30.41,SSW,202,5.8,5.8,68,0.00,CLR,SCT,0.00,WeatherDisplay:10.37,2013-02-23 09:22:00,
2013-02-23 04:27:00,74.3,62.6,30.41,ESE,112,8.1,8.1,67,0.00,CLR,SCT,0.00,WeatherDisplay:10.37,2013-02-23 09:27:00,
2013-02-23 04:32:00,74.3,62.6,30.41,SE,135,6.9,6.9,67,0.00,CLR,SCT,0.00,WeatherDisplay:10.37,2013-02-23 09:32:00,
2013-02-23 04:37:00,74.3,62.6,30.41,SE,135,7.2,7.2,67,0.00,CLR,SCT,0.00,WeatherDisplay:10.37,2013-02-23 09:37:00,
2013-02-23 04:42:00,74.3,62.6,30.41,South,180,8.1,8.1,67,0.00,CLR,SCT,0.00,WeatherDisplay:10.37,2013-02-23 09:42:00,
2013-02-23 04:47:00,74.3,63.1,30.41,South,180,5.8,5.8,68,0.00,CLR,SCT,0.00,WeatherDisplay:10.37,2013-02-23 09:47:00,
2013-02-23 04:52:00,74.3,63.1,30.41,ESE,112,4.6,4.6,68,0.00,CLR,SCT,0.00,WeatherDisplay:10.37,2013-02-23 09:52:00,
2013-02-23 04:57:00,74.3,63.1,30.41,SSE,158,5.8,5.8,68,0.00,CLR,SCT,0.00,WeatherDisplay:10.37,2013-02-23 09:57:00,
2013-02-23 05:02:00,74.3,63.1,30.41,SSE,158,6.9,6.9,68,0.00,CLR,SCT,0.00,WeatherDisplay:10.37,2013-02-23 10:02:00,
2013-02-23 05:07:00,74.3,62.6,30.41,ESE,112,4.6,4.6,67,0.00,CLR,SCT,0.00,WeatherDisplay:10.37,2013-02-23 10:07:00,
2013-02-23 05:12:00,74.3,62.6,30.41,South,180,4.6,4.6,67,0.00,CLR,SCT,0.00,WeatherDisplay:10.37,2013-02-23 10:12:00,
2013-02-23 05:17:00,74.3,62.6,30.41,ESE,112,6.9,6.9,67,0.00,CLR,SCT,0.00,WeatherDisplay:10.37,2013-02-23 10:17:00,
2013-02-23 05:22:00,74.3,62.6,30.41,South,180,5.8,5.8,67,0.00,CLR,SCT,0.00,WeatherDisplay:10.37,2013-02-23 10:22:00,
2013-02-23 05:27:00,74.3,62.6,30.41,SSE,158,4.6,4.6,67,0.00,CLR,SCT,0.00,WeatherDisplay:10.37,2013-02-23 10:27:00,
2013-02-23 05:32:00,74.3,62.6,30.41,South,180,4.6,4.6,67,0.00,CLR,SCT,0.00,WeatherDisplay:10.37,2013-02-23 10:32:00,
2013-02-23 05:37:00,74.3,62.6,30.41,SSE,158,6.9,6.9,67,0.00,CLR,SCT,0.00,WeatherDisplay:10.37,2013-02-23 10:37:00,
2013-02-23 05:42:00,74.3,62.6,30.41,SE,135,4.6,4.6,67,0.00,CLR,SCT,0.00,WeatherDisplay:10.37,2013-02-23 10:42:00,
2013-02-23 05:47:00,74.3,62.6,30.41,South,180,6.9,6.9,67,0.00,CLR,SCT,0.00,WeatherDisplay:10.37,2013-02-23 10:47:00,
2013-02-23 05:52:00,74.3,62.6,30.41,SSE,158,5.8,5.8,67,0.00,CLR,SCT,0.00,WeatherDisplay:10.37,2013-02-23 10:52:00,
2013-02-23 05:57:00,74.3,62.6,30.41,South,180,5.8,5.8,67,0.00,CLR,SCT,0.00,WeatherDisplay:10.37,2013-02-23 10:57:00,
2013-02-23 06:02:00,74.3,62.6,30.41,South,180,5.8,5.8,67,0.00,CLR,SCT,0.00,WeatherDisplay:10.37,2013-02-23 11:02:00,
2013-02-23 06:07:00,74.3,62.6,30.41,SW,225,2.3,3.8,67,0.00,CLR,SCT,0.00,WeatherDisplay:10.37,2013-02-23 11:07:00,
2013-02-23 06:12:00,74.3,62.6,30.41,SSE,158,4.6,4.6,67,0.00,CLR,SCT,0.00,WeatherDisplay:10.37,2013-02-23 11:12:00,
2013-02-23 06:17:00,74.3,62.6,30.41,ESE,112,4.6,4.6,67,0.00,CLR,SCT,0.00,WeatherDisplay:10.37,2013-02-23 11:17:00,
2013-02-23 06:22:00,74.3,62.2,30.41,ESE,112,4.6,4.6,66,0.00,CLR,SCT,0.00,WeatherDisplay:10.37,2013-02-23 11:22:00,
2013-02-23 06:27:00,74.1,62.0,30.41,SSE,158,9.5,9.5,66,0.00,CLR,SCT,0.00,WeatherDisplay:10.37,2013-02-23 11:27:00,
2013-02-23 06:32:00,74.1,62.0,30.41,SE,135,9.2,9.2,66,0.00,CLR,SCT,0.00,WeatherDisplay:10.37,2013-02-23 11:32:00,
2013-02-23 06:37:00,74.1,62.0,30.41,SE,135,3.5,3.9,66,0.00,CLR,SCT,0.00,WeatherDisplay:10.37,2013-02-23 11:37:00,
2013-02-23 06:42:00,73.9,61.9,30.41,SE,135,5.8,5.8,66,0.00,CLR,SCT,0.00,WeatherDisplay:10.37,2013-02-23 11:42:00,
2013-02-23 06:47:00,73.9,61.9,30.41,SSE,158,4.6,4.6,66,0.00,CLR,SCT,0.00,WeatherDisplay:10.37,2013-02-23 11:47:00,
2013-02-23 06:52:00,73.9,61.9,30.41,SE,135,6.9,6.9,66,0.00,CLR,SCT,0.00,WeatherDisplay:10.37,2013-02-23 11:52:00,
2013-02-23 06:57:00,73.9,61.9,30.41,South,180,5.8,5.8,66,0.00,CLR,SCT,0.00,WeatherDisplay:10.37,2013-02-23 11:57:00,
2013-02-23 07:02:00,73.9,61.9,30.41,SE,135,6.9,6.9,66,0.00,CLR,SCT,0.00,WeatherDisplay:10.37,2013-02-23 12:02:00,
2013-02-23 07:07:00,73.9,61.9,30.41,SSE,158,6.3,6.3,66,0.00,CLR,SCT,0.00,WeatherDisplay:10.37,2013-02-23 12:07:00,
2013-02-23 07:12:00,73.9,61.4,30.41,SE,135,9.2,9.2,65,0.00,CLR,SCT,0.00,WeatherDisplay:10.37,2013-02-23 12:12:00,
2013-02-23 07:17:00,74.1,61.6,30.41,South,180,3.5,4.0,65,0.00,CLR,SCT,0.00,WeatherDisplay:10.37,2013-02-23 12:17:00,
2013-02-23 07:22:00,74.3,61.8,30.41,ESE,112,4.6,4.6,65,0.00,CLR,SCT,0.00,WeatherDisplay:10.37,2013-02-23 12:22:00,
2013-02-23 07:27:00,74.3,61.8,30.41,SSE,158,8.1,8.1,65,0.00,CLR,SCT,0.00,WeatherDisplay:10.37,2013-02-23 12:27:00,
2013-02-23 07:32:00,74.5,61.9,30.41,SE,135,8.1,8.1,65,0.00,CLR,SCT,0.00,WeatherDisplay:10.37,2013-02-23 12:32:00,
2013-02-23 07:37:00,74.5,61.9,30.41,SSE,158,4.6,4.6,65,0.00,CLR,SCT,0.00,WeatherDisplay:10.37,2013-02-23 12:37:00,
2013-02-23 07:42:00,74.7,62.1,30.41,South,180,4.6,4.6,65,0.00,CLR,SCT,0.00,WeatherDisplay:10.37,2013-02-23 12:42:00,
2013-02-23 07:47:00,75.0,62.5,30.41,SSE,158,6.9,6.9,65,0.00,CLR,SCT,0.00,WeatherDisplay:10.37,2013-02-23 12:47:00,
2013-02-23 07:52:00,75.2,62.2,30.41,South,180,5.8,5.8,64,0.00,CLR,SCT,0.00,WeatherDisplay:10.37,2013-02-23 12:52:00,
2013-02-23 07:57:00,75.4,62.4,30.41,SSE,158,3.5,4.1,64,0.00,CLR,SCT,0.00,WeatherDisplay:10.37,2013-02-23 12:57:00,
2013-02-23 08:02:00,75.6,62.5,30.41,SE,135,6.9,6.9,64,0.00,CLR,SCT,0.00,WeatherDisplay:10.37,2013-02-23 13:02:00,
2013-02-23 08:07:00,75.7,62.2,30.41,SE,135,6.9,6.9,63,0.00,CLR,SCT,0.00,WeatherDisplay:10.37,2013-02-23 13:07:00,
2013-02-23 08:12:00,75.7,62.2,30.41,SSE,158,5.8,5.8,63,0.00,CLR,SCT,0.00,WeatherDisplay:10.37,2013-02-23 13:12:00,
2013-02-23 08:17:00,75.9,62.4,30.41,SSE,158,9.2,9.2,63,0.00,CLR,SCT,0.00,WeatherDisplay:10.37,2013-02-23 13:17:00,
2013-02-23 08:22:00,76.1,62.1,30.41,SSE,158,8.1,8.1,62,0.00,CLR,SCT,0.00,WeatherDisplay:10.37,2013-02-23 13:22:00,
2013-02-23 08:27:00,76.3,62.3,30.41,SSE,158,6.9,6.9,62,0.00,CLR,SCT,0.00,WeatherDisplay:10.37,2013-02-23 13:27:00,
2013-02-23 08:32:00,76.6,62.6,30.41,SSE,158,6.9,6.9,62,0.00,CLR,SCT,0.00,WeatherDisplay:10.37,2013-02-23 13:32:00,
2013-02-23 08:37:00,77.0,62.5,30.41,South,180,11.5,11.5,61,0.00,CLR,SCT,0.00,WeatherDisplay:10.37,2013-02-23 13:37:00,
2013-02-23 08:42:00,77.0,62.5,30.41,South,180,6.9,6.9,61,0.00,CLR,SCT,0.00,WeatherDisplay:10.37,2013-02-23 13:42:00,
2013-02-23 08:47:00,77.2,62.7,30.41,South,180,9.2,9.2,61,0.00,CLR,SCT,0.00,WeatherDisplay:10.37,2013-02-23 13:47:00,
2013-02-23 08:52:00,77.7,62.7,30.41,South,180,10.6,10.6,60,0.00,CLR,SCT,0.00,WeatherDisplay:10.37,2013-02-23 13:52:00,
2013-02-23 08:57:00,77.9,62.4,30.41,SE,135,6.9,6.9,59,0.00,CLR,SCT,0.00,WeatherDisplay:10.37,2013-02-23 13:57:00,
2013-02-23 09:02:00,78.3,62.8,30.41,SE,135,6.9,6.9,59,0.00,CLR,SCT,0.00,WeatherDisplay:10.37,2013-02-23 14:02:00,
2013-02-23 09:07:00,78.4,62.9,30.41,SE,135,9.2,9.2,59,0.00,CLR,SCT,0.00,WeatherDisplay:10.37,2013-02-23 14:07:00,
2013-02-23 09:12:00,78.6,63.1,30.41,SSE,158,11.5,11.5,59,0.00,CLR,SCT,0.00,WeatherDisplay:10.37,2013-02-23 14:12:00,
2013-02-23 09:17:00,79.0,62.4,30.41,SE,135,7.6,7.6,57,0.00,CLR,SCT,0.00,WeatherDisplay:10.37,2013-02-23 14:17:00,
2013-02-23 09:22:00,79.0,62.4,30.41,South,180,6.9,6.9,57,0.00,CLR,SCT,0.00,WeatherDisplay:10.37,2013-02-23 14:22:00,
2013-02-23 09:27:00,79.0,62.4,30.41,SSE,158,9.2,9.2,57,0.00,CLR,SCT,0.00,WeatherDisplay:10.37,2013-02-23 14:27:00,
2013-02-23 09:32:00,78.8,62.3,30.41,SSE,158,8.1,8.1,57,0.00,CLR,SCT,0.00,WeatherDisplay:10.37,2013-02-23 14:32:00,
2013-02-23 09:37:00,79.0,62.4,30.41,SE,135,6.9,6.9,57,0.00,CLR,SCT,0.00,WeatherDisplay:10.37,2013-02-23 14:37:00,
2013-02-23 09:42:00,79.2,62.6,30.41,South,180,11.5,11.5,57,0.00,CLR,SCT,0.00,WeatherDisplay:10.37,2013-02-23 14:42:00,
2013-02-23 09:47:00,79.3,62.3,30.41,South,180,9.2,9.2,56,0.00,CLR,SCT,0.00,WeatherDisplay:10.37,2013-02-23 14:47:00,
2013-02-23 09:52:00,79.3,62.3,30.41,SE,135,6.3,6.3,56,0.00,CLR,SCT,0.00,WeatherDisplay:10.37,2013-02-23 14:52:00,
2013-02-23 09:58:00,79.5,62.4,30.41,SE,135,9.7,9.7,56,0.00,CLR,SCT,0.00,WeatherDisplay:10.37,2013-02-23 14:58:00,
2013-02-23 10:03:00,79.5,62.4,30.41,SSE,158,6.9,6.9,56,0.00,CLR,SCT,0.00,WeatherDisplay:10.37,2013-02-23 15:03:00,
2013-02-23 10:08:00,79.3,62.3,30.41,ESE,112,5.8,5.8,56,0.00,CLR,SCT,0.00,WeatherDisplay:10.37,2013-02-23 15:08:00,
2013-02-23 10:13:00,79.5,62.4,30.41,SSE,158,9.2,9.2,56,0.00,CLR,SCT,0.00,WeatherDisplay:10.37,2013-02-23 15:13:00,
2013-02-23 10:18:00,79.5,62.4,30.41,South,180,6.9,6.9,56,0.00,CLR,SCT,0.00,WeatherDisplay:10.37,2013-02-23 15:18:00,
2013-02-23 10:23:00,79.9,62.8,30.41,ESE,112,5.8,5.8,56,0.00,CLR,SCT,0.00,WeatherDisplay:10.37,2013-02-23 15:23:00,
2013-02-23 10:28:00,79.9,62.3,30.41,SE,135,9.2,9.2,55,0.00,CLR,SCT,0.00,WeatherDisplay:10.37,2013-02-23 15:28:00,
2013-02-23 10:33:00,80.1,62.4,30.41,SSE,158,8.1,8.1,55,0.00,CLR,SCT,0.00,WeatherDisplay:10.37,2013-02-23 15:33:00,
2013-02-23 10:38:00,80.4,62.8,30.41,SSW,202,10.4,10.4,55,0.00,CLR,SCT,0.00,WeatherDisplay:10.37,2013-02-23 15:38:00,
2013-02-23 10:43:00,80.6,62.4,30.41,SE,135,6.9,6.9,54,0.00,CLR,SCT,0.00,WeatherDisplay:10.37,2013-02-23 15:43:00,
2013-02-23 10:48:00,81.0,62.7,30.41,South,180,8.7,8.7,54,0.00,CLR,SCT,0.00,WeatherDisplay:10.37,2013-02-23 15:48:00,
2013-02-23 10:53:00,81.0,62.7,30.41,ESE,112,9.2,9.2,54,0.00,CLR,SCT,0.00,WeatherDisplay:10.37,2013-02-23 15:53:00,
2013-02-23 10:58:00,80.4,62.2,30.41,South,180,6.9,6.9,54,0.00,CLR,SCT,0.00,WeatherDisplay:10.37,2013-02-23 15:58:00,
2013-02-23 11:03:00,80.6,62.4,30.41,SE,135,10.4,10.4,54,0.00,CLR,SCT,0.00,WeatherDisplay:10.37,2013-02-23 16:03:00,
2013-02-23 11:08:00,81.0,62.7,30.41,SE,135,8.1,8.1,54,0.00,CLR,SCT,0.00,WeatherDisplay:10.37,2013-02-23 16:08:00,
2013-02-23 11:13:00,81.1,62.4,30.41,SE,135,6.9,6.9,53,0.00,CLR,SCT,0.00,WeatherDisplay:10.37,2013-02-23 16:13:00,
2013-02-23 11:18:00,81.3,62.6,30.41,SE,135,3.5,5.1,53,0.00,CLR,SCT,0.00,WeatherDisplay:10.37,2013-02-23 16:18:00,
2013-02-23 11:23:00,81.1,61.8,30.41,SSE,158,9.2,9.2,52,0.00,CLR,SCT,0.00,WeatherDisplay:10.37,2013-02-23 16:23:00,
2013-02-23 11:28:00,81.0,61.7,30.41,South,180,11.5,11.5,52,0.00,CLR,SCT,0.00,WeatherDisplay:10.37,2013-02-23 16:28:00,
2013-02-23 11:33:00,81.1,61.8,30.41,SSE,158,6.9,6.9,52,0.00,CLR,SCT,0.00,WeatherDisplay:10.37,2013-02-23 16:33:00,
2013-02-23 11:38:00,81.3,62.0,30.41,SSE,158,6.9,6.9,52,0.00,CLR,SCT,0.00,WeatherDisplay:10.37,2013-02-23 16:38:00,
2013-02-23 11:43:00,81.5,62.7,30.41,SSE,158,9.2,9.2,53,0.00,CLR,SCT,0.00,WeatherDisplay:10.37,2013-02-23 16:43:00,
2013-02-23 11:48:00,81.5,62.2,30.41,SE,135,4.6,4.9,52,0.00,CLR,SCT,0.00,WeatherDisplay:10.37,2013-02-23 16:48:00,
2013-02-23 11:53:00,81.7,62.3,30.41,SSE,158,6.9,6.9,52,0.00,CLR,SCT,0.00,WeatherDisplay:10.37,2013-02-23 16:53:00,
2013-02-23 11:58:00,81.9,62.5,30.41,South,180,4.9,5.4,52,0.00,CLR,SCT,0.00,WeatherDisplay:10.37,2013-02-23 16:58:00,
2013-02-23 12:03:00,81.7,61.8,30.41,SSE,158,6.9,6.9,51,0.00,CLR,SCT,0.00,WeatherDisplay:10.37,2013-02-23 17:03:00,
2013-02-23 12:08:00,81.9,62.5,30.41,South,180,8.1,8.1,52,0.00,CLR,SCT,0.00,WeatherDisplay:10.37,2013-02-23 17:08:00,
2013-02-23 12:13:00,81.9,62.0,30.41,SSE,158,5.8,5.8,51,0.00,CLR,SCT,0.00,WeatherDisplay:10.37,2013-02-23 17:13:00,
2013-02-23 12:18:00,82.0,62.7,30.41,ESE,112,3.5,4.9,52,0.00,CLR,SCT,0.00,WeatherDisplay:10.37,2013-02-23 17:18:00,
2013-02-23 12:23:00,82.4,62.5,30.41,ESE,112,3.5,4.9,51,0.00,CLR,SCT,0.00,WeatherDisplay:10.37,2013-02-23 17:23:00,
2013-02-23 12:28:00,82.6,62.1,30.41,SE,135,6.9,6.9,50,0.00,CLR,SCT,0.00,WeatherDisplay:10.37,2013-02-23 17:28:00,
2013-02-23 12:33:00,82.2,62.3,30.41,SE,135,9.2,9.2,51,0.00,CLR,SCT,0.00,WeatherDisplay:10.37,2013-02-23 17:33:00,
2013-02-23 12:38:00,82.4,61.9,30.41,South,180,6.9,6.9,50,0.00,CLR,SCT,0.00,WeatherDisplay:10.37,2013-02-23 17:38:00,
2013-02-23 12:43:00,82.6,62.1,30.41,SSE,158,9.2,9.2,50,0.00,CLR,SCT,0.00,WeatherDisplay:10.37,2013-02-23 17:43:00,
2013-02-23 12:48:00,82.9,62.4,30.41,SE,135,10.4,10.4,50,0.00,CLR,SCT,0.00,WeatherDisplay:10.37,2013-02-23 17:48:00,
2013-02-23 12:53:00,83.1,62.6,30.41,SSE,158,5.8,5.8,50,0.00,CLR,SCT,0.00,WeatherDisplay:10.37,2013-02-23 17:53:00,
2013-02-23 12:58:00,83.3,62.1,30.41,SSE,158,8.1,8.1,49,0.00,CLR,SCT,0.00,WeatherDisplay:10.37,2013-02-23 17:58:00,
2013-02-23 13:03:00,82.9,61.8,30.41,SSE,158,9.2,9.2,49,0.00,CLR,SCT,0.00,WeatherDisplay:10.37,2013-02-23 18:03:00,
2013-02-23 13:08:00,82.9,61.8,30.41,South,180,9.2,9.2,49,0.00,CLR,SCT,0.00,WeatherDisplay:10.37,2013-02-23 18:08:00,
2013-02-23 13:13:00,83.5,62.3,30.41,South,180,9.2,9.2,49,0.00,CLR,SCT,0.00,WeatherDisplay:10.37,2013-02-23 18:13:00,
2013-02-23 13:18:00,83.5,62.3,30.41,South,180,6.9,6.9,49,0.00,CLR,SCT,0.00,WeatherDisplay:10.37,2013-02-23 18:18:00,
2013-02-23 13:23:00,83.7,62.5,30.41,South,180,9.2,9.2,49,0.00,CLR,SCT,0.00,WeatherDisplay:10.37,2013-02-23 18:23:00,
2013-02-23 13:28:00,83.3,62.1,30.41,WSW,248,5.8,5.8,49,0.00,CLR,SCT,0.00,WeatherDisplay:10.37,2013-02-23 18:28:00,
2013-02-23 13:33:00,83.5,62.3,30.41,SW,225,6.9,6.9,49,0.00,CLR,SCT,0.00,WeatherDisplay:10.37,2013-02-23 18:33:00,
2013-02-23 13:38:00,84.0,62.8,30.41,SSW,202,10.4,10.4,49,0.00,CLR,SCT,0.00,WeatherDisplay:10.37,2013-02-23 18:38:00,
2013-02-23 13:43:00,83.1,62.0,30.41,SSE,158,8.1,8.1,49,0.00,CLR,SCT,0.00,WeatherDisplay:10.37,2013-02-23 18:43:00,
2013-02-23 13:48:00,83.5,62.3,30.41,SSE,158,11.0,11.0,49,0.00,CLR,SCT,0.00,WeatherDisplay:10.37,2013-02-23 18:48:00,
2013-02-23 13:53:00,83.7,62.5,30.41,South,180,9.2,9.2,49,0.00,CLR,SCT,0.00,WeatherDisplay:10.37,2013-02-23 18:53:00,
2013-02-23 13:58:00,83.5,62.3,30.41,South,180,6.9,6.9,49,0.00,CLR,SCT,0.00,WeatherDisplay:10.37,2013-02-23 18:58:00,
2013-02-23 14:03:00,83.5,62.3,30.41,SE,135,10.4,10.4,49,0.00,CLR,SCT,0.00,WeatherDisplay:10.37,2013-02-23 19:03:00,
2013-02-23 14:08:00,83.7,62.5,30.41,SE,135,6.9,6.9,49,0.00,CLR,SCT,0.00,WeatherDisplay:10.37,2013-02-23 19:08:00,
2013-02-23 14:13:00,83.8,62.6,30.41,South,180,6.9,6.9,49,0.00,CLR,SCT,0.00,WeatherDisplay:10.37,2013-02-23 19:13:00,
2013-02-23 14:18:00,83.1,62.0,30.41,South,180,6.9,6.9,49,0.00,CLR,SCT,0.00,WeatherDisplay:10.37,2013-02-23 19:18:00,
2013-02-23 14:24:00,83.3,62.1,30.41,SSW,202,9.2,9.2,49,0.00,CLR,SCT,0.00,WeatherDisplay:10.37,2013-02-23 19:24:00,
2013-02-23 14:29:00,83.8,62.6,30.41,SSW,202,8.1,8.1,49,0.00,CLR,SCT,0.00,WeatherDisplay:10.37,2013-02-23 19:29:00,
2013-02-23 14:34:00,84.0,62.8,30.41,SE,135,8.1,8.1,49,0.00,CLR,SCT,0.00,WeatherDisplay:10.37,2013-02-23 19:34:00,
2013-02-23 14:39:00,84.7,63.5,30.41,SE,135,8.1,8.1,49,0.00,CLR,SCT,0.00,WeatherDisplay:10.37,2013-02-23 19:39:00,
2013-02-23 14:44:00,85.1,63.2,30.41,SSE,158,6.9,6.9,48,0.00,CLR,SCT,0.00,WeatherDisplay:10.37,2013-02-23 19:44:00,
2013-02-23 14:49:00,85.1,63.2,30.41,SE,135,9.2,9.2,48,0.00,CLR,SCT,0.00,WeatherDisplay:10.37,2013-02-23 19:49:00,
2013-02-23 14:54:00,85.3,63.4,30.41,East,90,9.2,9.2,48,0.00,CLR,SCT,0.00,WeatherDisplay:10.37,2013-02-23 19:54:00,
2013-02-23 14:59:00,85.3,63.4,30.41,South,180,8.1,8.1,48,0.00,CLR,SCT,0.00,WeatherDisplay:10.37,2013-02-23 19:59:00,
2013-02-23 15:04:00,84.7,62.9,30.41,ESE,112,6.2,6.2,48,0.00,CLR,SCT,0.00,WeatherDisplay:10.37,2013-02-23 20:04:00,
2013-02-23 15:09:00,84.7,62.9,30.41,NNE,22,2.4,4.3,48,0.00,CLR,SCT,0.00,WeatherDisplay:10.37,2013-02-23 20:09:00,
2013-02-23 15:14:00,85.3,63.4,30.41,SE,135,6.9,6.9,48,0.00,CLR,SCT,0.00,WeatherDisplay:10.37,2013-02-23 20:14:00,
2013-02-23 15:19:00,85.1,62.6,30.41,SE,135,6.9,6.9,47,0.00,CLR,SCT,0.00,WeatherDisplay:10.37,2013-02-23 20:19:00,
2013-02-23 15:24:00,85.5,62.9,30.41,SE,135,6.6,6.6,47,0.00,CLR,SCT,0.00,WeatherDisplay:10.37,2013-02-23 20:24:00,
2013-02-23 15:29:00,85.5,62.9,30.41,WSW,248,5.8,5.8,47,0.00,CLR,SCT,0.00,WeatherDisplay:10.37,2013-02-23 20:29:00,
2013-02-23 15:34:00,85.5,62.9,30.41,SE,135,8.1,8.1,47,0.00,CLR,SCT,0.00,WeatherDisplay:10.37,2013-02-23 20:34:00,
2013-02-23 15:39:00,85.8,62.6,30.41,South,180,9.2,9.2,46,0.00,CLR,SCT,0.00,WeatherDisplay:10.37,2013-02-23 20:39:00,
2013-02-23 15:44:00,85.3,62.2,30.41,South,180,9.2,9.2,46,0.00,CLR,SCT,0.00,WeatherDisplay:10.37,2013-02-23 20:44:00,
2013-02-23 15:49:00,85.1,62.6,30.41,SSE,158,5.8,5.8,47,0.00,CLR,SCT,0.00,WeatherDisplay:10.37,2013-02-23 20:49:00,
2013-02-23 15:54:00,84.6,62.7,30.41,SSE,158,9.2,9.2,48,0.00,CLR,SCT,0.00,WeatherDisplay:10.37,2013-02-23 20:54:00,
2013-02-23 15:59:00,84.0,62.8,30.41,NE,45,8.1,8.1,49,0.00,CLR,SCT,0.00,WeatherDisplay:10.37,2013-02-23 20:59:00,
2013-02-23 16:04:00,83.8,62.6,30.41,ENE,68,6.9,6.9,49,0.00,CLR,SCT,0.00,WeatherDisplay:10.37,2013-02-23 21:04:00,
2013-02-23 16:09:00,84.0,62.8,30.41,SSE,158,6.9,6.9,49,0.00,CLR,SCT,0.00,WeatherDisplay:10.37,2013-02-23 21:09:00,
2013-02-23 16:14:00,84.0,62.8,30.41,WNW,292,5.8,5.8,49,0.00,CLR,SCT,0.00,WeatherDisplay:10.37,2013-02-23 21:14:00,
2013-02-23 16:19:00,84.0,62.8,30.41,SE,135,5.8,5.8,49,0.00,CLR,SCT,0.00,WeatherDisplay:10.37,2013-02-23 21:19:00,
2013-02-23 16:24:00,85.5,63.5,30.41,ESE,112,6.9,6.9,48,0.00,CLR,SCT,0.00,WeatherDisplay:10.37,2013-02-23 21:24:00,
2013-02-23 16:29:00,85.8,63.9,30.41,SSE,158,7.4,7.4,48,0.00,CLR,SCT,0.00,WeatherDisplay:10.37,2013-02-23 21:29:00,
2013-02-23 16:34:00,86.4,63.8,30.41,ESE,112,5.8,5.8,47,0.00,CLR,SCT,0.00,WeatherDisplay:10.37,2013-02-23 21:34:00,
2013-02-23 16:39:00,87.1,64.4,30.41,SE,135,6.9,6.9,47,0.00,CLR,SCT,0.00,WeatherDisplay:10.37,2013-02-23 21:39:00,
2013-02-23 16:44:00,86.7,63.5,30.41,South,180,4.3,4.3,46,0.00,CLR,SCT,0.00,WeatherDisplay:10.37,2013-02-23 21:44:00,
2013-02-23 16:49:00,86.2,62.3,30.41,SSE,158,10.4,10.4,45,0.00,CLR,SCT,0.00,WeatherDisplay:10.37,2013-02-23 21:49:00,
2013-02-23 16:54:00,87.4,64.1,30.41,SE,135,4.6,4.9,46,0.00,CLR,SCT,0.00,WeatherDisplay:10.37,2013-02-23 21:54:00,
2013-02-23 16:59:00,88.5,63.8,30.41,NNW,338,6.9,6.9,44,0.00,CLR,SCT,0.00,WeatherDisplay:10.37,2013-02-23 21:59:00,
2013-02-23 17:04:00,85.5,62.3,30.41,ENE,68,8.1,8.1,46,0.00,CLR,SCT,0.00,WeatherDisplay:10.37,2013-02-23 22:04:00,
2013-02-23 17:09:00,84.7,61.7,30.41,South,180,6.9,6.9,46,0.00,CLR,SCT,0.00,WeatherDisplay:10.37,2013-02-23 22:09:00,
2013-02-23 17:14:00,84.2,61.8,30.41,WSW,248,6.9,6.9,47,0.00,CLR,SCT,0.00,WeatherDisplay:10.37,2013-02-23 22:14:00,
2013-02-23 17:19:00,83.7,61.9,30.41,South,180,5.8,5.8,48,0.00,CLR,SCT,0.00,WeatherDisplay:10.37,2013-02-23 22:19:00,
2013-02-23 17:24:00,82.8,61.6,30.41,South,180,6.9,6.9,49,0.00,CLR,SCT,0.00,WeatherDisplay:10.37,2013-02-23 22:24:00,
2013-02-23 17:29:00,82.6,61.5,30.41,SSE,158,8.1,8.1,49,0.00,CLR,SCT,0.00,WeatherDisplay:10.37,2013-02-23 22:29:00,
2013-02-23 17:34:00,82.0,61.6,30.41,South,180,8.1,8.1,50,0.00,CLR,SCT,0.00,WeatherDisplay:10.37,2013-02-23 22:34:00,
2013-02-23 17:39:00,81.7,61.2,30.41,South,180,6.9,6.9,50,0.00,CLR,SCT,0.00,WeatherDisplay:10.37,2013-02-23 22:39:00,
2013-02-23 17:44:00,81.5,61.6,30.41,SW,225,6.9,6.9,51,0.00,CLR,SCT,0.00,WeatherDisplay:10.37,2013-02-23 22:44:00,
2013-02-23 17:49:00,81.1,61.8,30.41,WSW,248,10.4,10.4,52,0.00,CLR,SCT,0.00,WeatherDisplay:10.37,2013-02-23 22:49:00,
2013-02-23 17:54:00,80.8,62.1,30.41,SSE,158,6.9,6.9,53,0.00,CLR,SCT,0.00,WeatherDisplay:10.37,2013-02-23 22:54:00,
2013-02-23 17:59:00,80.4,62.2,30.41,South,180,8.1,8.1,54,0.00,CLR,SCT,0.00,WeatherDisplay:10.37,2013-02-23 22:59:00,
2013-02-23 18:04:00,80.1,62.4,30.41,NW,315,6.9,6.9,55,0.00,CLR,SCT,0.00,WeatherDisplay:10.37,2013-02-23 23:04:00,
2013-02-23 18:09:00,79.9,62.3,30.41,South,180,6.9,6.9,55,0.00,CLR,SCT,0.00,WeatherDisplay:10.37,2013-02-23 23:09:00,
2013-02-23 18:14:00,79.7,62.6,30.41,South,180,8.1,8.1,56,0.00,CLR,SCT,0.00,WeatherDisplay:10.37,2013-02-23 23:14:00,
2013-02-23 18:19:00,79.5,62.4,30.41,South,180,4.6,4.9,56,0.00,CLR,SCT,0.00,WeatherDisplay:10.37,2013-02-23 23:19:00,
2013-02-23 18:24:00,79.3,62.8,30.41,South,180,11.5,11.5,57,0.00,CLR,SCT,0.00,WeatherDisplay:10.37,2013-02-23 23:24:00,
2013-02-23 18:29:00,79.2,63.1,30.41,South,180,9.4,9.4,58,0.00,CLR,SCT,0.00,WeatherDisplay:10.37,2013-02-23 23:29:00,
2013-02-23 18:34:00,79.0,62.9,30.41,South,180,7.0,7.0,58,0.00,CLR,SCT,0.00,WeatherDisplay:10.37,2013-02-23 23:34:00,
2013-02-23 18:39:00,78.8,62.8,30.41,South,180,4.6,4.6,58,0.00,CLR,SCT,0.00,WeatherDisplay:10.37,2013-02-23 23:39:00,
2013-02-23 18:44:00,78.6,63.1,30.41,South,180,5.8,5.8,59,0.00,CLR,SCT,0.00,WeatherDisplay:10.37,2013-02-23 23:44:00,
2013-02-23 18:49:00,78.6,63.1,30.41,South,180,9.2,9.2,59,0.00,CLR,SCT,0.00,WeatherDisplay:10.37,2013-02-23 23:49:00,
2013-02-23 18:54:00,78.4,63.4,30.41,SSE,158,9.2,9.2,60,0.00,CLR,SCT,0.00,WeatherDisplay:10.37,2013-02-23 23:54:00,
2013-02-23 18:59:00,78.4,63.4,30.41,South,180,8.1,8.1,60,0.00,CLR,SCT,0.00,WeatherDisplay:10.37,2013-02-23 23:59:00,
2013-02-23 19:04:00,78.3,63.2,30.41,SSW,202,9.2,9.2,60,0.00,CLR,SCT,0.00,WeatherDisplay:10.37,2013-02-24 00:04:00,
2013-02-23 19:09:00,78.3,63.2,30.41,SSE,158,7.2,7.2,60,0.00,CLR,SCT,0.00,WeatherDisplay:10.37,2013-02-24 00:09:00,
2013-02-23 19:14:00,78.1,63.5,30.41,SE,135,7.2,7.2,61,0.00,CLR,SCT,0.00,WeatherDisplay:10.37,2013-02-24 00:14:00,
2013-02-23 19:19:00,78.1,64.0,30.41,SSW,202,6.9,6.9,62,0.00,CLR,SCT,0.00,WeatherDisplay:10.37,2013-02-24 00:19:00,
2013-02-23 19:24:00,77.9,63.4,30.41,SSW,202,4.6,4.6,61,0.00,CLR,SCT,0.00,WeatherDisplay:10.37,2013-02-24 00:24:00,
2013-02-23 19:29:00,77.9,63.8,30.41,South,191,3.0,10.0,62,0.00,CLR,SCT,0.00,WeatherDisplay:10.37,2013-02-24 00:29:00,
2013-02-23 19:34:00,77.7,63.7,30.41,South,180,4.6,4.6,62,0.00,CLR,SCT,0.00,WeatherDisplay:10.37,2013-02-24 00:34:00,
2013-02-23 19:39:00,77.7,63.7,30.41,SW,225,2.3,3.5,62,0.00,CLR,SCT,0.00,WeatherDisplay:10.37,2013-02-24 00:39:00,
2013-02-23 19:45:00,77.7,63.7,30.41,SE,135,3.5,3.5,62,0.00,CLR,SCT,0.00,WeatherDisplay:10.37,2013-02-24 00:45:00,
2013-02-23 19:50:00,77.7,64.1,30.41,SSE,158,5.8,5.8,63,0.00,CLR,SCT,0.00,WeatherDisplay:10.37,2013-02-24 00:50:00,
2013-02-23 19:55:00,77.5,63.9,30.41,South,180,4.6,4.6,63,0.00,CLR,SCT,0.00,WeatherDisplay:10.37,2013-02-24 00:55:00,
2013-02-23 20:04:00,77.4,63.8,30.41,SSE,158,4.6,4.6,63,0.00,CLR,SCT,0.00,WeatherDisplay:10.37,2013-02-24 01:04:00,
2013-02-23 20:09:00,77.4,63.8,30.41,SSE,158,4.6,4.6,63,0.00,CLR,SCT,0.00,WeatherDisplay:10.37,2013-02-24 01:09:00,
2013-02-23 20:14:00,77.4,63.8,30.41,WSW,248,3.5,3.5,63,0.00,CLR,SCT,0.00,WeatherDisplay:10.37,2013-02-24 01:14:00,
2013-02-23 20:19:00,77.4,64.2,30.41,South,180,3.5,3.5,64,0.00,CLR,SCT,0.00,WeatherDisplay:10.37,2013-02-24 01:19:00,
2013-02-23 20:24:00,77.4,64.2,30.41,SW,225,5.8,5.8,64,0.00,CLR,SCT,0.00,WeatherDisplay:10.37,2013-02-24 01:24:00,
2013-02-23 20:29:00,77.4,64.2,30.41,SW,225,5.8,5.8,64,0.00,CLR,SCT,0.00,WeatherDisplay:10.37,2013-02-24 01:29:00,
2013-02-23 20:34:00,77.4,64.2,30.41,South,180,2.6,2.6,64,0.00,CLR,SCT,0.00,WeatherDisplay:10.37,2013-02-24 01:34:00,
2013-02-23 20:39:00,77.2,64.1,30.41,South,180,3.5,3.5,64,0.00,CLR,SCT,0.00,WeatherDisplay:10.37,2013-02-24 01:39:00,
2013-02-23 20:44:00,77.2,64.1,30.41,SSW,202,3.5,3.5,64,0.00,CLR,SCT,0.00,WeatherDisplay:10.37,2013-02-24 01:44:00,
2013-02-23 20:49:00,77.2,64.5,30.41,South,180,4.6,4.6,65,0.00,CLR,SCT,0.00,WeatherDisplay:10.37,2013-02-24 01:49:00,
2013-02-23 20:54:00,76.8,64.2,30.41,SSE,158,4.6,4.6,65,0.00,CLR,SCT,0.00,WeatherDisplay:10.37,2013-02-24 01:54:00,
2013-02-23 20:59:00,76.8,64.2,30.41,SSW,202,2.3,2.3,65,0.00,CLR,SCT,0.00,WeatherDisplay:10.37,2013-02-24 01:59:00,
2013-02-23 21:04:00,76.8,64.2,30.41,South,180,4.6,4.6,65,0.00,CLR,SCT,0.00,WeatherDisplay:10.37,2013-02-24 02:04:00,
2013-02-23 21:09:00,76.6,64.0,30.41,SW,225,1.2,1.6,65,0.00,CLR,SCT,0.00,WeatherDisplay:10.37,2013-02-24 02:09:00,
2013-02-23 21:14:00,76.6,64.4,30.41,SW,225,2.3,2.3,66,0.00,CLR,SCT,0.00,WeatherDisplay:10.37,2013-02-24 02:14:00,
2013-02-23 21:19:00,76.6,64.4,30.41,South,180,4.6,4.6,66,0.00,CLR,SCT,0.00,WeatherDisplay:10.37,2013-02-24 02:19:00,
2013-02-23 21:24:00,76.5,64.3,30.41,South,180,2.3,2.3,66,0.00,CLR,SCT,0.00,WeatherDisplay:10.37,2013-02-24 02:24:00,
2013-02-23 21:29:00,76.5,64.3,30.41,South,180,4.6,4.6,66,0.00,CLR,SCT,0.00,WeatherDisplay:10.37,2013-02-24 02:29:00,
2013-02-23 21:34:00,76.5,64.3,30.41,SSE,158,2.3,2.3,66,0.00,CLR,SCT,0.00,WeatherDisplay:10.37,2013-02-24 02:34:00,
2013-02-23 21:39:00,76.5,64.3,30.41,SW,225,2.3,2.3,66,0.00,CLR,SCT,0.00,WeatherDisplay:10.37,2013-02-24 02:39:00,
2013-02-23 21:44:00,76.5,64.3,30.41,SSE,158,2.6,2.6,66,0.00,CLR,SCT,0.00,WeatherDisplay:10.37,2013-02-24 02:44:00,
2013-02-23 21:49:00,76.3,64.1,30.41,South,180,2.3,2.3,66,0.00,CLR,SCT,0.00,WeatherDisplay:10.37,2013-02-24 02:49:00,
2013-02-23 21:54:00,76.3,64.1,30.41,South,180,2.3,2.3,66,0.00,CLR,SCT,0.00,WeatherDisplay:10.37,2013-02-24 02:54:00,
2013-02-23 21:59:00,76.3,64.5,30.41,South,180,1.2,1.2,67,0.00,CLR,SCT,0.00,WeatherDisplay:10.37,2013-02-24 02:59:00,
2013-02-23 22:04:00,76.3,64.5,30.41,SSW,202,2.3,2.3,67,0.00,CLR,SCT,0.00,WeatherDisplay:10.37,2013-02-24 03:04:00,
2013-02-23 22:09:00,76.1,64.3,30.41,South,180,1.4,1.4,67,0.00,CLR,SCT,0.00,WeatherDisplay:10.37,2013-02-24 03:09:00,
2013-02-23 22:14:00,76.1,64.3,30.41,SW,225,2.3,2.3,67,0.00,CLR,SCT,0.00,WeatherDisplay:10.37,2013-02-24 03:14:00,
2013-02-23 22:19:00,76.1,64.3,30.41,SW,225,2.4,2.4,67,0.00,CLR,SCT,0.00,WeatherDisplay:10.37,2013-02-24 03:19:00,
2013-02-23 22:24:00,76.1,64.8,30.41,South,180,2.3,2.3,68,0.00,CLR,SCT,0.00,WeatherDisplay:10.37,2013-02-24 03:24:00,
2013-02-23 22:29:00,76.1,64.8,30.41,SW,225,1.2,1.2,68,0.00,CLR,SCT,0.00,WeatherDisplay:10.37,2013-02-24 03:29:00,
2013-02-23 22:34:00,76.1,64.8,30.41,South,180,2.3,2.3,68,0.00,CLR,SCT,0.00,WeatherDisplay:10.37,2013-02-24 03:34:00,
2013-02-23 22:39:00,76.1,64.8,30.41,South,180,1.2,1.2,68,0.00,CLR,SCT,0.00,WeatherDisplay:10.37,2013-02-24 03:39:00,
2013-02-23 22:45:00,75.9,64.6,30.41,SW,225,1.3,1.3,68,0.00,CLR,SCT,0.00,WeatherDisplay:10.37,2013-02-24 03:45:00,
2013-02-23 22:50:00,75.9,64.6,30.41,South,180,0.0,0.2,68,0.00,CLR,SCT,0.00,WeatherDisplay:10.37,2013-02-24 03:50:00,
2013-02-23 22:55:00,75.7,64.4,30.41,SSE,158,2.3,2.3,68,0.00,CLR,SCT,0.00,WeatherDisplay:10.37,2013-02-24 03:55:00,
2013-02-23 23:00:00,75.7,64.4,30.41,SW,225,1.2,1.2,68,0.00,CLR,SCT,0.00,WeatherDisplay:10.37,2013-02-24 04:00:00,
2013-02-23 23:05:00,75.6,64.7,30.41,South,180,1.2,1.2,69,0.00,CLR,SCT,0.00,WeatherDisplay:10.37,2013-02-24 04:05:00,
2013-02-23 23:10:00,75.6,64.7,30.41,South,180,1.3,1.3,69,0.00,CLR,SCT,0.00,WeatherDisplay:10.37,2013-02-24 04:10:00,
2013-02-23 23:15:00,75.6,64.7,30.41,South,180,0.0,0.1,69,0.00,CLR,SCT,0.00,WeatherDisplay:10.37,2013-02-24 04:15:00,
2013-02-23 23:20:00,75.6,64.7,30.41,South,180,0.0,0.1,69,0.00,CLR,SCT,0.00,WeatherDisplay:10.37,2013-02-24 04:20:00,
2013-02-23 23:25:00,75.6,64.7,30.41,South,180,1.2,1.2,69,0.00,CLR,SCT,0.00,WeatherDisplay:10.37,2013-02-24 04:25:00,
2013-02-23 23:30:00,75.6,64.7,30.41,SW,225,0.0,0.3,69,0.00,CLR,SCT,0.00,WeatherDisplay:10.37,2013-02-24 04:30:00,
2013-02-23 23:35:00,75.4,64.5,30.41,SW,225,0.0,0.2,69,0.00,CLR,SCT,0.00,WeatherDisplay:10.37,2013-02-24 04:35:00,
2013-02-23 23:40:00,75.4,64.9,30.41,South,180,0.0,0.0,70,0.00,CLR,SCT,0.00,WeatherDisplay:10.37,2013-02-24 04:40:00,
2013-02-23 23:45:00,75.4,64.9,30.41,South,180,1.2,0.0,70,0.00,CLR,SCT,0.00,WeatherDisplay:10.37,2013-02-24 04:45:00,
2013-02-23 23:50:00,75.4,64.9,30.41,SSW,202,0.0,0.0,70,0.00,CLR,SCT,0.00,WeatherDisplay:10.37,2013-02-24 04:50:00,
2013-02-23 23:55:00,75.4,64.9,30.41,South,180,1.2,1.2,70,0.00,CLR,SCT,0.00,WeatherDisplay:10.37,2013-02-24 04:55:00,